createdAt,value
2018-09-22T00:00:57.378Z,55.66
2018-09-22T00:03:25.030Z,55.76
2018-09-22T00:05:52.722Z,55.01
2018-09-22T00:08:20.388Z,55.01
2018-09-22T00:10:48.095Z,54.87
2018-09-22T00:13:15.727Z,55.69
2018-09-22T00:15:43.413Z,55.77
2018-09-22T00:18:11.076Z,55.55
2018-09-22T00:20:38.710Z,55.75
2018-09-22T00:23:06.414Z,55.14
2018-09-22T00:25:34.054Z,54.97
2018-09-22T00:28:01.693Z,55.08
2018-09-22T00:30:29.481Z,55.70
2018-09-22T00:32:57.125Z,55.74
2018-09-22T00:35:24.782Z,54.96
2018-09-22T00:37:52.446Z,55.02
2018-09-22T00:40:20.088Z,55.06
2018-09-22T00:42:47.726Z,55.21
2018-09-22T00:45:15.353Z,55.76
2018-09-22T00:47:42.982Z,55.02
2018-09-22T00:50:10.663Z,55.57
2018-09-22T00:52:38.340Z,55.84
2018-09-22T00:55:06.210Z,55.37
2018-09-22T00:57:33.931Z,55.84
2018-09-22T01:00:01.892Z,55.85
2018-09-22T01:02:29.724Z,55.87
2018-09-22T01:04:57.410Z,54.99
2018-09-22T01:07:25.069Z,55.83
2018-09-22T01:09:52.724Z,55.81
2018-09-22T01:12:20.417Z,55.13
2018-09-22T01:14:48.198Z,55.83
2018-09-22T01:17:15.926Z,55.19
2018-09-22T01:19:43.653Z,55.83
2018-09-22T01:22:11.361Z,55.34
2018-09-22T01:24:39.050Z,55.30
2018-09-22T01:27:06.733Z,55.79
2018-09-22T01:29:34.462Z,55.80
2018-09-22T01:32:02.242Z,55.17
2018-09-22T01:34:29.889Z,55.89
2018-09-22T01:36:57.599Z,55.17
2018-09-22T01:39:25.257Z,55.89
2018-09-22T01:41:52.989Z,55.87
2018-09-22T01:44:20.624Z,55.15
2018-09-22T01:46:48.341Z,55.42
2018-09-22T01:49:15.982Z,55.96
2018-09-22T01:51:43.704Z,55.37
2018-09-22T01:54:11.449Z,55.09
2018-09-22T01:56:39.121Z,55.82
2018-09-22T01:59:06.867Z,55.91
2018-09-22T02:01:34.659Z,55.81
2018-09-22T02:04:02.349Z,55.16
2018-09-22T02:06:30.038Z,55.42
2018-09-22T02:08:57.677Z,55.19
2018-09-22T02:11:25.382Z,55.72
2018-09-22T02:13:53.126Z,55.88
2018-09-22T02:16:20.812Z,55.24
2018-09-22T02:18:48.522Z,55.60
2018-09-22T02:21:16.271Z,56.02
2018-09-22T02:23:43.950Z,55.35
2018-09-22T02:26:11.634Z,55.29
2018-09-22T02:28:39.297Z,55.22
2018-09-22T02:31:07.038Z,55.25
2018-09-22T02:33:34.787Z,55.89
2018-09-22T02:36:02.545Z,56.03
2018-09-22T02:38:30.307Z,55.17
2018-09-22T02:40:58.105Z,55.93
2018-09-22T02:43:25.897Z,55.23
2018-09-22T02:45:53.610Z,56.02
2018-09-22T02:48:21.286Z,55.31
2018-09-22T02:50:48.970Z,56.00
2018-09-22T02:53:16.660Z,56.02
2018-09-22T02:55:44.378Z,55.98
2018-09-22T02:58:12.104Z,55.23
2018-09-22T03:00:39.841Z,56.03
2018-09-22T03:03:07.650Z,55.29
2018-09-22T03:05:35.401Z,55.26
2018-09-22T03:08:03.090Z,55.75
2018-09-22T03:10:30.842Z,55.99
2018-09-22T03:12:58.580Z,55.35
2018-09-22T03:15:26.399Z,55.27
2018-09-22T03:17:54.133Z,55.34
2018-09-22T03:20:21.853Z,55.30
2018-09-22T03:22:49.546Z,55.22
2018-09-22T03:25:17.258Z,55.83
2018-09-22T03:27:44.976Z,55.96
2018-09-22T03:30:12.672Z,55.97
2018-09-22T03:32:40.422Z,55.15
2018-09-22T03:35:08.122Z,55.54
2018-09-22T03:37:35.892Z,55.98
2018-09-22T03:40:03.648Z,56.00
2018-09-22T03:42:31.349Z,56.03
2018-09-22T03:44:59.136Z,55.27
2018-09-22T03:47:26.983Z,55.24
2018-09-22T03:49:54.799Z,55.99
2018-09-22T03:52:22.562Z,55.24
2018-09-22T03:54:50.289Z,55.39
2018-09-22T03:57:18.006Z,55.96
2018-09-22T03:59:45.697Z,56.09
2018-09-22T04:02:13.402Z,55.81
2018-09-22T04:04:41.237Z,55.25
2018-09-22T04:07:08.990Z,55.82
2018-09-22T04:09:36.705Z,55.41
2018-09-22T04:12:04.437Z,56.04
2018-09-22T04:14:32.138Z,55.93
2018-09-22T04:16:59.842Z,55.29
2018-09-22T04:19:27.611Z,55.39
2018-09-22T04:21:55.353Z,55.99
2018-09-22T04:24:23.058Z,55.86
2018-09-22T04:26:51.948Z,55.22
2018-09-22T04:29:20.542Z,56.05
2018-09-22T04:31:48.600Z,55.87
2018-09-22T04:34:16.481Z,55.38
2018-09-22T04:36:44.606Z,55.30
2018-09-22T04:39:12.309Z,55.24
2018-09-22T04:41:41.626Z,55.26
2018-09-22T04:44:09.580Z,55.42
2018-09-22T04:46:37.466Z,56.03
2018-09-22T04:49:05.203Z,55.89
2018-09-22T04:51:32.943Z,55.30
2018-09-22T04:54:00.874Z,56.07
2018-09-22T04:56:28.822Z,55.49
2018-09-22T04:58:56.997Z,56.00
2018-09-22T05:01:24.803Z,55.96
2018-09-22T05:03:52.490Z,56.00
2018-09-22T05:06:20.334Z,55.28
2018-09-22T05:08:48.071Z,56.11
2018-09-22T05:11:15.774Z,56.28
2018-09-22T05:13:43.485Z,55.95
2018-09-22T05:16:11.298Z,55.37
2018-09-22T05:18:38.998Z,56.00
2018-09-22T05:21:06.722Z,56.01
2018-09-22T05:23:34.461Z,55.34
2018-09-22T05:26:02.806Z,55.35
2018-09-22T05:28:30.810Z,55.38
2018-09-22T05:30:58.545Z,55.31
2018-09-22T05:33:26.281Z,55.25
2018-09-22T05:35:53.866Z,55.37
2018-09-22T05:38:21.641Z,55.45
2018-09-22T05:40:49.357Z,56.01
2018-09-22T05:43:17.134Z,55.24
2018-09-22T05:45:44.858Z,56.05
2018-09-22T05:48:12.596Z,56.00
2018-09-22T05:50:40.286Z,55.97
2018-09-22T05:53:07.990Z,56.07
2018-09-22T05:55:35.717Z,55.50
2018-09-22T05:58:03.486Z,55.97
2018-09-22T06:00:35.414Z,55.24
2018-09-22T06:03:03.137Z,55.88
2018-09-22T06:05:30.822Z,55.92
2018-09-22T06:07:58.540Z,55.41
2018-09-22T06:10:26.200Z,55.99
2018-09-22T06:12:53.939Z,55.72
2018-09-22T06:15:21.637Z,55.27
2018-09-22T06:17:49.332Z,55.33
2018-09-22T06:20:17.132Z,55.76
2018-09-22T06:22:44.829Z,56.06
2018-09-22T06:25:12.603Z,55.22
2018-09-22T06:27:40.259Z,55.26
2018-09-22T06:30:08.021Z,56.05
2018-09-22T06:32:35.663Z,56.01
2018-09-22T06:35:03.361Z,55.34
2018-09-22T06:37:31.198Z,55.95
2018-09-22T06:39:58.802Z,55.45
2018-09-22T06:42:26.510Z,55.20
2018-09-22T06:44:54.201Z,55.17
2018-09-22T06:47:21.889Z,55.12
2018-09-22T06:49:49.597Z,55.95
2018-09-22T06:52:17.322Z,55.14
2018-09-22T06:54:45.075Z,55.83
2018-09-22T06:57:12.866Z,54.83
2018-09-22T06:59:41.476Z,53.76
2018-09-22T07:02:09.518Z,54.67
2018-09-22T07:04:37.487Z,54.28
2018-09-22T07:07:05.243Z,53.76
2018-09-22T07:09:32.874Z,52.33
2018-09-22T07:12:00.494Z,54.43
2018-09-22T07:14:28.147Z,54.40
2018-09-22T07:16:55.846Z,54.29
2018-09-22T07:19:23.571Z,54.37
2018-09-22T07:21:56.555Z,54.41
2018-09-22T07:24:24.251Z,54.19
2018-09-22T07:26:51.918Z,54.19
2018-09-22T07:29:19.630Z,54.26
2018-09-22T07:31:47.454Z,53.92
2018-09-22T07:34:15.329Z,53.95
2018-09-22T07:36:42.964Z,54.00
2018-09-22T07:39:11.882Z,54.37
2018-09-22T07:41:39.626Z,53.74
2018-09-22T07:44:07.233Z,53.92
2018-09-22T07:46:34.853Z,54.66
2018-09-22T07:49:03.245Z,54.69
2018-09-22T07:51:30.877Z,54.33
2018-09-22T07:53:58.501Z,54.59
2018-09-22T07:56:26.242Z,54.08
2018-09-22T07:58:54.103Z,54.17
2018-09-22T08:01:21.749Z,54.04
2018-09-22T08:03:49.357Z,53.98
2018-09-22T08:06:16.981Z,54.53
2018-09-22T08:08:44.662Z,53.76
2018-09-22T08:11:12.287Z,53.90
2018-09-22T08:13:39.912Z,53.57
2018-09-22T08:16:07.530Z,53.74
2018-09-22T08:18:35.144Z,53.87
2018-09-22T08:21:02.837Z,54.21
2018-09-22T08:23:30.452Z,54.48
2018-09-22T08:25:58.115Z,53.73
2018-09-22T08:28:25.753Z,53.70
2018-09-22T08:30:53.363Z,54.46
2018-09-22T08:33:21.081Z,53.81
2018-09-22T08:35:48.758Z,53.50
2018-09-22T08:38:16.374Z,54.56
2018-09-22T08:40:44.048Z,54.09
2018-09-22T08:43:11.776Z,53.81
2018-09-22T08:45:39.410Z,54.64
2018-09-22T08:48:07.068Z,53.82
2018-09-22T08:50:34.719Z,54.56
2018-09-22T08:53:02.357Z,54.80
2018-09-22T08:55:29.969Z,54.67
2018-09-22T08:57:57.655Z,54.31
2018-09-22T09:00:25.281Z,53.89
2018-09-22T09:02:52.948Z,54.09
2018-09-22T09:05:20.580Z,53.86
2018-09-22T09:07:48.209Z,54.63
2018-09-22T09:10:15.926Z,54.62
2018-09-22T09:12:43.665Z,53.82
2018-09-22T09:15:11.312Z,54.02
2018-09-22T09:17:38.975Z,53.78
2018-09-22T09:20:06.653Z,53.81
2018-09-22T09:22:34.272Z,53.89
2018-09-22T09:25:02.141Z,53.79
2018-09-22T09:27:29.756Z,53.68
2018-09-22T09:29:57.390Z,54.52
2018-09-22T09:32:25.057Z,53.92
2018-09-22T09:34:52.683Z,53.75
2018-09-22T09:37:20.302Z,53.77
2018-09-22T09:39:47.923Z,54.50
2018-09-22T09:42:15.605Z,53.86
2018-09-22T09:44:43.220Z,53.85
2018-09-22T09:47:10.854Z,53.80
2018-09-22T09:49:38.580Z,54.58
2018-09-22T09:52:06.209Z,53.77
2018-09-22T09:54:33.898Z,53.86
2018-09-22T09:57:01.505Z,53.85
2018-09-22T09:59:29.160Z,53.88
2018-09-22T10:01:57.077Z,53.80
2018-09-22T10:04:24.695Z,53.88
2018-09-22T10:06:52.612Z,53.80
2018-09-22T10:09:20.243Z,53.82
2018-09-22T10:11:47.879Z,54.52
2018-09-22T10:14:15.566Z,54.17
2018-09-22T10:16:43.382Z,54.55
2018-09-22T10:19:11.082Z,54.56
2018-09-22T10:21:38.823Z,54.50
2018-09-22T10:24:06.553Z,54.09
2018-09-22T10:26:34.216Z,54.18
2018-09-22T10:29:01.942Z,54.13
2018-09-22T10:31:29.613Z,54.50
2018-09-22T10:33:57.307Z,53.74
2018-09-22T10:36:25.033Z,54.04
2018-09-22T10:38:53.755Z,53.94
2018-09-22T10:41:21.470Z,53.68
2018-09-22T10:43:49.149Z,54.51
2018-09-22T10:46:16.853Z,53.61
2018-09-22T10:48:44.738Z,53.87
2018-09-22T10:51:12.478Z,54.21
2018-09-22T10:53:40.177Z,53.79
2018-09-22T10:56:07.847Z,54.03
2018-09-22T10:58:35.489Z,54.48
2018-09-22T11:01:03.173Z,54.58
2018-09-22T11:03:30.861Z,53.86
2018-09-22T11:05:58.549Z,54.63
2018-09-22T11:08:26.189Z,54.54
2018-09-22T11:10:53.954Z,54.12
2018-09-22T11:13:21.613Z,54.42
2018-09-22T11:15:49.230Z,54.37
2018-09-22T11:18:16.880Z,54.41
2018-09-22T11:20:44.504Z,53.61
2018-09-22T11:23:12.116Z,53.60
2018-09-22T11:25:39.743Z,54.01
2018-09-22T11:28:07.471Z,54.05
2018-09-22T11:30:35.135Z,54.14
2018-09-22T11:33:02.892Z,54.12
2018-09-22T11:35:30.496Z,53.58
2018-09-22T11:37:58.117Z,54.25
2018-09-22T11:40:25.741Z,53.53
2018-09-22T11:42:53.348Z,53.40
2018-09-22T11:45:20.980Z,54.14
2018-09-22T11:47:48.616Z,54.05
2018-09-22T11:50:16.242Z,54.20
2018-09-22T11:52:43.894Z,53.45
2018-09-22T11:55:11.508Z,53.44
2018-09-22T11:57:39.177Z,54.15
2018-09-22T12:00:07.073Z,53.55
2018-09-22T12:02:34.773Z,53.41
2018-09-22T12:05:02.400Z,53.40
2018-09-22T12:07:30.031Z,53.39
2018-09-22T12:09:57.648Z,53.36
2018-09-22T12:12:25.303Z,53.79
2018-09-22T12:14:52.945Z,53.19
2018-09-22T12:17:20.560Z,52.99
2018-09-22T12:19:48.400Z,53.68
2018-09-22T12:22:16.293Z,53.08
2018-09-22T12:24:43.917Z,53.81
2018-09-22T12:27:11.593Z,53.71
2018-09-22T12:29:39.241Z,53.66
2018-09-22T12:32:06.862Z,53.76
2018-09-22T12:34:34.489Z,53.20
2018-09-22T12:37:02.117Z,54.14
2018-09-22T12:39:29.780Z,53.54
2018-09-22T12:41:57.450Z,53.90
2018-09-22T12:44:25.084Z,53.85
2018-09-22T12:46:52.729Z,53.94
2018-09-22T12:49:20.359Z,53.91
2018-09-22T12:51:47.977Z,53.83
2018-09-22T12:54:15.591Z,53.64
2018-09-22T12:56:43.223Z,53.84
2018-09-22T12:59:10.972Z,54.11
2018-09-22T13:01:38.597Z,54.00
2018-09-22T13:04:06.328Z,53.20
2018-09-22T13:06:33.944Z,53.88
2018-09-22T13:09:01.553Z,53.04
2018-09-22T13:11:29.165Z,53.95
2018-09-22T13:13:56.769Z,53.43
2018-09-22T13:16:24.389Z,54.19
2018-09-22T13:18:52.016Z,54.32
2018-09-22T13:21:19.789Z,53.61
2018-09-22T13:23:47.427Z,52.98
2018-09-22T13:26:15.172Z,53.68
2018-09-22T13:28:42.784Z,53.66
2018-09-22T13:31:10.419Z,53.14
2018-09-22T13:33:38.053Z,53.22
2018-09-22T13:36:05.678Z,53.32
2018-09-22T13:38:33.338Z,53.52
2018-09-22T13:41:00.985Z,53.54
2018-09-22T13:43:28.634Z,53.28
2018-09-22T13:45:56.244Z,53.11
2018-09-22T13:48:23.861Z,52.84
2018-09-22T13:50:51.547Z,53.43
2018-09-22T13:53:19.128Z,52.70
2018-09-22T13:55:46.787Z,53.03
2018-09-22T13:58:14.423Z,53.43
2018-09-22T14:00:42.041Z,53.27
2018-09-22T14:03:09.774Z,52.77
2018-09-22T14:05:37.392Z,52.80
2018-09-22T14:08:05.051Z,53.40
2018-09-22T14:10:33.350Z,52.86
2018-09-22T14:13:01.010Z,53.42
2018-09-22T14:15:28.661Z,52.86
2018-09-22T14:17:56.401Z,53.72
2018-09-22T14:20:24.014Z,52.83
2018-09-22T14:22:51.664Z,53.59
2018-09-22T14:25:19.292Z,53.70
2018-09-22T14:27:46.932Z,53.49
2018-09-22T14:30:14.556Z,53.56
2018-09-22T14:32:42.177Z,53.06
2018-09-22T14:35:09.851Z,53.01
2018-09-22T14:37:37.507Z,53.08
2018-09-22T14:40:05.135Z,52.97
2018-09-22T14:42:32.749Z,53.08
2018-09-22T14:45:00.390Z,53.01
2018-09-22T14:47:28.062Z,53.55
2018-09-22T14:49:55.713Z,53.09
2018-09-22T14:52:23.325Z,53.04
2018-09-22T14:54:50.984Z,52.98
2018-09-22T14:57:18.641Z,53.01
2018-09-22T14:59:46.278Z,53.97
2018-09-22T15:02:13.894Z,53.30
2018-09-22T15:04:41.783Z,53.37
2018-09-22T15:07:09.436Z,54.07
2018-09-22T15:09:37.122Z,54.05
2018-09-22T15:12:04.762Z,54.04
2018-09-22T15:14:32.537Z,54.13
2018-09-22T15:17:00.144Z,53.58
2018-09-22T15:19:27.897Z,54.05
2018-09-22T15:21:55.527Z,53.38
2018-09-22T15:24:23.295Z,53.37
2018-09-22T15:26:50.918Z,54.06
2018-09-22T15:29:18.699Z,53.00
2018-09-22T15:31:46.423Z,53.11
2018-09-22T15:34:14.158Z,53.02
2018-09-22T15:36:41.974Z,53.82
2018-09-22T15:39:10.116Z,53.89
2018-09-22T15:41:37.927Z,54.02
2018-09-22T15:44:05.611Z,54.11
2018-09-22T15:46:33.437Z,54.22
2018-09-22T15:49:02.378Z,53.55
2018-09-22T15:51:30.031Z,53.32
2018-09-22T15:53:57.754Z,54.16
2018-09-22T15:56:25.385Z,53.98
2018-09-22T15:58:53.138Z,53.71
2018-09-22T16:01:20.828Z,53.54
2018-09-22T16:03:48.585Z,54.34
2018-09-22T16:06:16.627Z,54.23
2018-09-22T16:08:44.463Z,53.51
2018-09-22T16:11:12.129Z,54.25
2018-09-22T16:13:41.356Z,54.04
2018-09-22T16:16:09.203Z,54.77
2018-09-22T16:18:37.012Z,54.16
2018-09-22T16:21:04.766Z,53.84
2018-09-22T16:23:32.419Z,54.51
2018-09-22T16:26:00.089Z,54.53
2018-09-22T16:28:27.768Z,53.84
2018-09-22T16:30:55.430Z,53.74
2018-09-22T16:33:23.111Z,54.38
2018-09-22T16:35:50.737Z,53.70
2018-09-22T16:38:18.491Z,54.44
2018-09-22T16:40:46.114Z,53.73
2018-09-22T16:43:13.845Z,53.71
2018-09-22T16:45:41.489Z,53.77
2018-09-22T16:48:09.109Z,54.00
2018-09-22T16:50:36.968Z,54.39
2018-09-22T16:53:05.154Z,53.62
2018-09-22T16:55:32.985Z,54.40
2018-09-22T16:58:00.646Z,53.56
2018-09-22T17:00:28.353Z,53.66
2018-09-22T17:02:55.997Z,53.63
2018-09-22T17:05:23.698Z,54.40
2018-09-22T17:07:51.353Z,54.17
2018-09-22T17:10:18.970Z,53.53
2018-09-22T17:12:46.633Z,54.36
2018-09-22T17:15:14.248Z,54.29
2018-09-22T17:17:42.235Z,54.39
2018-09-22T17:20:09.983Z,54.03
2018-09-22T17:22:37.830Z,54.39
2018-09-22T17:25:05.518Z,53.73
2018-09-22T17:27:33.303Z,54.37
2018-09-22T17:30:01.148Z,54.20
2018-09-22T17:32:28.781Z,53.79
2018-09-22T17:34:56.393Z,53.76
2018-09-22T17:37:24.078Z,54.49
2018-09-22T17:39:51.956Z,54.48
2018-09-22T17:42:19.572Z,53.79
2018-09-22T17:44:47.198Z,53.95
2018-09-22T17:47:14.876Z,54.45
2018-09-22T17:49:42.492Z,54.42
2018-09-22T17:52:10.113Z,53.78
2018-09-22T17:54:37.753Z,54.10
2018-09-22T17:57:05.392Z,53.75
2018-09-22T17:59:33.079Z,54.02
2018-09-22T18:02:01.035Z,53.77
2018-09-22T18:04:28.737Z,54.04
2018-09-22T18:06:56.366Z,54.38
2018-09-22T18:09:24.030Z,54.45
2018-09-22T18:11:51.674Z,54.43
2018-09-22T18:14:19.297Z,53.71
2018-09-22T18:16:46.949Z,54.32
2018-09-22T18:19:14.572Z,53.63
2018-09-22T18:21:42.298Z,54.44
2018-09-22T18:24:09.920Z,54.31
2018-09-22T18:26:37.609Z,54.38
2018-09-22T18:29:05.613Z,53.64
2018-09-22T18:31:33.262Z,53.76
2018-09-22T18:34:00.916Z,53.93
2018-09-22T18:36:28.545Z,53.74
2018-09-22T18:38:56.163Z,53.74
2018-09-22T18:41:23.794Z,53.94
2018-09-22T18:43:51.521Z,53.70
2018-09-22T18:46:19.162Z,54.46
2018-09-22T18:48:46.798Z,54.50
2018-09-22T18:51:14.444Z,53.69
2018-09-22T18:53:42.202Z,54.22
2018-09-22T18:56:09.892Z,53.72
2018-09-22T18:58:37.554Z,53.74
2018-09-22T19:01:05.199Z,54.56
2018-09-22T19:03:32.836Z,54.53
2018-09-22T19:06:00.517Z,54.03
2018-09-22T19:08:28.249Z,54.52
2018-09-22T19:10:55.898Z,53.79
2018-09-22T19:13:28.126Z,53.90
2018-09-22T19:15:58.566Z,54.56
2018-09-22T19:18:31.662Z,54.48
2018-09-22T19:21:04.821Z,54.23
2018-09-22T19:23:36.917Z,54.54
2018-09-22T19:26:08.836Z,53.66
2018-09-22T19:28:40.324Z,53.76
2018-09-22T19:31:11.651Z,53.72
2018-09-22T19:33:46.153Z,53.82
2018-09-22T19:36:24.844Z,53.96
2018-09-22T19:39:26.533Z,53.95
2018-09-22T19:42:05.387Z,54.57
2018-09-22T19:44:38.404Z,53.79
2018-09-22T19:47:11.628Z,53.80
2018-09-22T19:49:44.170Z,54.54
2018-09-22T19:52:15.637Z,54.46
2018-09-22T19:54:43.492Z,54.54
2018-09-22T19:57:11.241Z,53.87
2018-09-22T19:59:38.924Z,54.04
2018-09-22T20:02:06.662Z,54.49
2018-09-22T20:04:34.428Z,54.28
2018-09-22T20:07:02.144Z,53.84
2018-09-22T20:09:29.867Z,53.97
2018-09-22T20:11:57.675Z,54.49
2018-09-22T20:14:25.355Z,54.56
2018-09-22T20:16:53.071Z,54.47
2018-09-22T20:19:20.849Z,53.84
2018-09-22T20:21:48.521Z,53.76
2018-09-22T20:24:16.206Z,54.11
2018-09-22T20:26:43.872Z,53.77
2018-09-22T20:29:11.566Z,53.81
2018-09-22T20:31:39.251Z,54.54
2018-09-22T20:34:07.059Z,53.78
2018-09-22T20:36:34.778Z,53.92
2018-09-22T20:39:02.470Z,53.85
2018-09-22T20:41:30.222Z,53.81
2018-09-22T20:43:57.864Z,53.80
2018-09-22T20:46:25.533Z,53.78
2018-09-22T20:48:53.197Z,54.51
2018-09-22T20:51:20.892Z,54.59
2018-09-22T20:53:48.591Z,54.40
2018-09-22T20:56:16.851Z,53.89
2018-09-22T20:58:44.550Z,54.55
2018-09-22T21:01:12.233Z,53.75
2018-09-22T21:03:39.945Z,54.19
2018-09-22T21:06:07.641Z,54.50
2018-09-22T21:08:41.804Z,54.42
2018-09-22T21:11:09.520Z,54.48
2018-09-22T21:13:37.287Z,53.78
2018-09-22T21:16:04.955Z,54.50
2018-09-22T21:18:32.714Z,53.95
2018-09-22T21:21:00.404Z,54.63
2018-09-22T21:23:28.076Z,53.96
2018-09-22T21:25:55.801Z,54.45
2018-09-22T21:28:23.466Z,53.95
2018-09-22T21:30:51.224Z,53.96
2018-09-22T21:33:18.933Z,54.52
2018-09-22T21:35:46.621Z,53.88
2018-09-22T21:38:14.328Z,54.59
2018-09-22T21:40:42.025Z,54.16
2018-09-22T21:43:09.737Z,53.89
2018-09-22T21:45:37.417Z,54.65
2018-09-22T21:48:05.113Z,53.84
2018-09-22T21:50:32.778Z,53.67
2018-09-22T21:53:00.462Z,54.58
2018-09-22T21:55:28.137Z,53.92
2018-09-22T21:57:55.779Z,53.95
2018-09-22T22:00:23.447Z,53.86
2018-09-22T22:02:51.129Z,53.99
2018-09-22T22:05:18.808Z,54.78
2018-09-22T22:07:46.454Z,54.68
2018-09-22T22:10:14.210Z,53.85
2018-09-22T22:12:41.901Z,53.85
2018-09-22T22:15:09.561Z,53.92
2018-09-22T22:17:37.301Z,54.65
2018-09-22T22:20:04.992Z,54.04
2018-09-22T22:22:32.694Z,54.51
2018-09-22T22:25:00.361Z,54.28
2018-09-22T22:27:28.041Z,53.97
2018-09-22T22:29:55.698Z,53.93
2018-09-22T22:32:23.390Z,54.47
2018-09-22T22:34:51.040Z,54.00
2018-09-22T22:37:18.769Z,54.67
2018-09-22T22:39:46.469Z,54.75
2018-09-22T22:42:14.216Z,54.74
2018-09-22T22:44:41.975Z,54.45
2018-09-22T22:47:09.709Z,53.91
2018-09-22T22:49:37.530Z,53.97
2018-09-22T22:52:05.220Z,53.93
2018-09-22T22:54:32.945Z,54.17
2018-09-22T22:57:00.707Z,54.06
2018-09-22T22:59:28.491Z,54.71
2018-09-22T23:01:56.197Z,53.98
2018-09-22T23:04:23.914Z,53.98
2018-09-22T23:06:51.642Z,53.96
2018-09-22T23:09:19.424Z,54.00
2018-09-22T23:11:47.167Z,54.54
2018-09-22T23:14:14.950Z,54.01
2018-09-22T23:16:42.684Z,54.58
2018-09-22T23:19:10.560Z,53.99
2018-09-22T23:21:38.359Z,54.71
2018-09-22T23:24:06.334Z,53.95
2018-09-22T23:26:34.041Z,54.13
2018-09-22T23:29:01.755Z,54.12
2018-09-22T23:31:29.522Z,54.05
2018-09-22T23:33:57.197Z,54.81
2018-09-22T23:36:24.869Z,54.02
2018-09-22T23:38:52.656Z,54.06
2018-09-22T23:41:20.448Z,53.95
2018-09-22T23:43:48.139Z,54.74
2018-09-22T23:46:15.813Z,54.42
2018-09-22T23:48:43.623Z,54.13
2018-09-22T23:51:11.473Z,54.84
2018-09-22T23:53:39.123Z,54.08
2018-09-22T23:56:06.904Z,54.08
2018-09-22T23:58:34.662Z,54.77
